Time;durP1;ratioP1;P1;durP2;ratioP2;P2;SDS_P1;SDS_P2;PMS_P1;PMS_P2;Temp;Humidity;BMP_temperature;BMP_pressure;BME280_temperature;BME280_humidity;BME280_pressure;Samples;Min_cycle;Max_cycle;Signal;HPM_P1;HPM_P2
2023/11/09 00:01:36;;;;;;;0.88;0.70;;;15.90;68.40;;;;;;5113390;28;20180;-63
2023/11/09 00:04:02;;;;;;;0.80;0.70;;;15.90;68.50;;;;;;5111997;28;20691;-63
2023/11/09 00:06:27;;;;;;;0.50;0.50;;;15.90;68.50;;;;;;5113226;28;20173;-63
2023/11/09 00:08:53;;;;;;;0.43;0.43;;;15.90;68.60;;;;;;5113025;28;20253;-64
2023/11/09 00:11:20;;;;;;;1.65;0.77;;;15.80;68.60;;;;;;5112379;28;20180;-63
2023/11/09 00:13:46;;;;;;;1.17;0.50;;;15.90;68.60;;;;;;5113278;28;20180;-62
2023/11/09 00:16:13;;;;;;;2.33;0.80;;;15.90;68.70;;;;;;5112778;28;20169;-63
2023/11/09 00:18:38;;;;;;;1.13;0.70;;;15.80;68.60;;;;;;5112427;28;20188;-62
2023/11/09 00:21:04;;;;;;;0.68;0.68;;;15.90;68.70;;;;;;5125958;28;20176;-63
2023/11/09 00:23:31;;;;;;;1.27;0.68;;;15.80;68.70;;;;;;5133429;27;20211;-64
2023/11/09 00:25:57;;;;;;;0.57;0.47;;;15.80;68.60;;;;;;5137124;27;20183;-64
2023/11/09 00:28:22;;;;;;;0.57;0.57;;;15.80;68.60;;;;;;5137497;27;20168;-63
2023/11/09 00:30:48;;;;;;;0.93;0.55;;;15.80;68.70;;;;;;5137637;27;20651;-63
2023/11/09 00:33:13;;;;;;;1.08;0.60;;;15.80;68.70;;;;;;5136176;27;20653;-63
2023/11/09 00:35:39;;;;;;;1.20;0.60;;;15.80;68.70;;;;;;5137282;27;20196;-64
2023/11/09 00:38:06;;;;;;;0.80;0.80;;;15.80;68.70;;;;;;5137103;27;20214;-64
2023/11/09 00:40:31;;;;;;;0.63;0.63;;;15.80;68.60;;;;;;5136647;27;20591;-63
2023/11/09 00:42:57;;;;;;;0.98;0.60;;;15.80;68.60;;;;;;5137593;27;20204;-63
2023/11/09 00:45:22;;;;;;;0.50;0.50;;;15.80;68.70;;;;;;5137217;27;20578;-63
2023/11/09 00:47:48;;;;;;;0.55;0.50;;;15.80;68.60;;;;;;5136473;27;20220;-63
2023/11/09 00:50:14;;;;;;;0.50;0.50;;;15.70;68.70;;;;;;5136839;27;20233;-63
2023/11/09 00:52:42;;;;;;;0.57;0.57;;;15.80;68.80;;;;;;5136246;27;20302;-63
2023/11/09 00:55:08;;;;;;;1.70;0.57;;;15.80;68.70;;;;;;5136891;27;20203;-64
2023/11/09 00:57:34;;;;;;;0.45;0.45;;;15.80;68.60;;;;;;5137118;27;20169;-65
2023/11/09 00:59:59;;;;;;;0.68;0.60;;;15.70;68.60;;;;;;5136045;27;20179;-64
2023/11/09 01:02:25;;;;;;;0.30;0.30;;;15.80;68.70;;;;;;5136925;27;20165;-64
2023/11/09 01:04:51;;;;;;;1.40;0.60;;;15.80;68.70;;;;;;5136915;27;20256;-64
2023/11/09 01:07:16;;;;;;;0.60;0.47;;;15.80;68.60;;;;;;5135690;27;20649;-64
2023/11/09 01:09:43;;;;;;;0.57;0.50;;;15.70;68.60;;;;;;5136950;27;20183;-65
2023/11/09 01:12:08;;;;;;;0.82;0.47;;;15.70;68.60;;;;;;5136587;27;20217;-64
2023/11/09 01:14:34;;;;;;;0.75;0.60;;;15.70;68.60;;;;;;5136207;27;20184;-64
2023/11/09 01:17:00;;;;;;;0.57;0.55;;;15.70;68.60;;;;;;5136436;27;20691;-64
2023/11/09 01:19:25;;;;;;;0.52;0.52;;;15.70;68.60;;;;;;5136566;27;20180;-63
2023/11/09 01:21:51;;;;;;;0.82;0.40;;;15.70;68.60;;;;;;5135730;27;20646;-64
2023/11/09 01:24:19;;;;;;;0.50;0.50;;;15.70;68.60;;;;;;5136264;27;20215;-64
2023/11/09 01:26:45;;;;;;;0.60;0.60;;;15.70;68.60;;;;;;5136459;27;20177;-63
2023/11/09 01:29:13;;;;;;;0.40;0.40;;;15.70;68.60;;;;;;5135538;27;20233;-64
2023/11/09 01:31:39;;;;;;;0.40;0.40;;;15.70;68.70;;;;;;5136449;27;20260;-64
2023/11/09 01:34:04;;;;;;;0.60;0.60;;;15.70;68.70;;;;;;5136017;27;20267;-64
2023/11/09 01:36:30;;;;;;;0.50;0.45;;;15.70;69.50;;;;;;5134931;27;20175;-64
2023/11/09 01:38:56;;;;;;;0.70;0.63;;;15.70;68.60;;;;;;5136363;27;20532;-64
2023/11/09 01:41:22;;;;;;;0.60;0.50;;;15.70;68.60;;;;;;5136051;27;20175;-64
2023/11/09 01:43:57;;;;;;;0.52;0.52;;;15.70;68.70;;;;;;5135417;27;20577;-64
2023/11/09 01:46:24;;;;;;;0.40;0.40;;;15.60;68.60;;;;;;5136007;27;20168;-63
2023/11/09 01:48:49;;;;;;;1.45;0.50;;;15.70;68.70;;;;;;5135077;27;20232;-63
2023/11/09 01:51:15;;;;;;;0.40;0.40;;;15.60;68.60;;;;;;5135575;27;20214;-63
2023/11/09 01:53:41;;;;;;;0.70;0.50;;;15.70;68.70;;;;;;5117833;27;20168;-64
2023/11/09 01:56:09;;;;;;;0.32;0.32;;;15.70;68.70;;;;;;5135051;27;20169;-64
2023/11/09 01:58:35;;;;;;;0.45;0.45;;;15.70;68.70;;;;;;5101449;27;20172;-64
2023/11/09 02:01:00;;;;;;;1.27;0.50;;;15.70;68.70;;;;;;5135517;27;20627;-64
2023/11/09 02:03:26;;;;;;;0.50;0.50;;;15.60;68.70;;;;;;5134824;27;20200;-64
2023/11/09 02:05:51;;;;;;;0.57;0.50;;;15.60;68.70;;;;;;5135693;27;20188;-64
2023/11/09 02:08:18;;;;;;;0.60;0.60;;;15.60;68.70;;;;;;5135435;27;20179;-64
2023/11/09 02:10:43;;;;;;;0.60;0.47;;;15.60;68.70;;;;;;5135020;27;20172;-63
2023/11/09 02:13:09;;;;;;;0.50;0.50;;;15.60;68.70;;;;;;5135411;27;20169;-63
2023/11/09 02:15:34;;;;;;;0.57;0.50;;;15.60;68.70;;;;;;5100362;27;20547;-64
2023/11/09 02:18:00;;;;;;;0.52;0.52;;;15.60;68.70;;;;;;5134398;27;20164;-63
2023/11/09 02:20:25;;;;;;;0.50;0.50;;;15.60;68.70;;;;;;5117252;27;20263;-63
2023/11/09 02:22:55;;;;;;;0.40;0.40;;;15.60;68.70;;;;;;5100067;27;20203;-64
2023/11/09 02:25:20;;;;;;;0.65;0.65;;;15.60;68.80;;;;;;5099275;27;20287;-63
2023/11/09 02:27:46;;;;;;;1.08;0.68;;;15.60;68.80;;;;;;5135421;27;20297;-64
2023/11/09 02:30:12;;;;;;;0.80;0.63;;;15.60;68.80;;;;;;5134731;27;20631;-64
2023/11/09 02:32:37;;;;;;;1.90;0.75;;;15.60;68.80;;;;;;5134473;27;20195;-64
2023/11/09 02:35:03;;;;;;;0.50;0.50;;;15.60;68.80;;;;;;5135001;27;20688;-64
2023/11/09 02:37:29;;;;;;;0.45;0.45;;;15.60;68.80;;;;;;5099935;27;20233;-64
2023/11/09 02:39:56;;;;;;;1.20;0.68;;;15.60;68.80;;;;;;5116169;27;20176;-64
2023/11/09 02:42:22;;;;;;;0.55;0.50;;;15.60;68.80;;;;;;5134567;27;20643;-64
2023/11/09 02:44:47;;;;;;;0.55;0.47;;;15.60;68.80;;;;;;5135045;27;20215;-63
2023/11/09 02:47:13;;;;;;;0.47;0.47;;;15.60;68.90;;;;;;5133183;27;20168;-63
2023/11/09 02:49:38;;;;;;;0.50;0.50;;;15.60;68.80;;;;;;5134604;27;20250;-64
2023/11/09 02:52:05;;;;;;;0.40;0.40;;;15.60;68.80;;;;;;5133969;27;20256;-63
2023/11/09 02:54:31;;;;;;;1.38;0.70;;;15.50;68.80;;;;;;5134683;27;20666;-64
2023/11/09 02:56:57;;;;;;;0.50;0.50;;;15.50;68.80;;;;;;5134791;27;20208;-64
2023/11/09 02:59:22;;;;;;;0.75;0.40;;;15.50;68.90;;;;;;5133786;27;20181;-65
2023/11/09 03:01:48;;;;;;;1.42;0.70;;;15.50;68.90;;;;;;5134509;27;20630;-64
2023/11/09 03:04:14;;;;;;;0.65;0.50;;;15.50;68.90;;;;;;5134095;27;20211;-64
2023/11/09 03:06:43;;;;;;;1.00;0.47;;;15.50;68.90;;;;;;5133933;27;20172;-64
2023/11/09 03:09:11;;;;;;;0.43;0.43;;;15.50;68.90;;;;;;5134219;27;20687;-64
2023/11/09 03:11:36;;;;;;;0.57;0.57;;;15.50;69.00;;;;;;5134528;27;20184;-64
2023/11/09 03:14:02;;;;;;;0.50;0.50;;;15.50;68.90;;;;;;5133280;27;20172;-64
2023/11/09 03:16:27;;;;;;;2.38;0.70;;;15.50;69.00;;;;;;5134208;27;20172;-63
2023/11/09 03:18:56;;;;;;;0.75;0.75;;;15.50;69.00;;;;;;5134480;27;20539;-63
2023/11/09 03:21:22;;;;;;;0.50;0.50;;;15.50;69.00;;;;;;5133207;27;20629;-63
2023/11/09 03:23:49;;;;;;;0.50;0.50;;;15.50;69.10;;;;;;5134081;27;20743;-63
2023/11/09 03:26:15;;;;;;;0.40;0.40;;;15.50;69.00;;;;;;5133950;27;20176;-63
2023/11/09 03:28:40;;;;;;;1.40;0.80;;;15.50;69.00;;;;;;5133312;27;20531;-63
2023/11/09 03:31:06;;;;;;;0.73;0.40;;;15.50;69.00;;;;;;5133727;27;20187;-63
2023/11/09 03:33:32;;;;;;;0.40;0.40;;;15.50;69.00;;;;;;5134333;27;20175;-63
2023/11/09 03:35:57;;;;;;;0.65;0.65;;;15.50;69.00;;;;;;5133511;27;20252;-64
2023/11/09 03:38:23;;;;;;;0.60;0.60;;;15.50;69.00;;;;;;5133956;27;20619;-64
2023/11/09 03:40:48;;;;;;;1.13;0.52;;;15.50;69.00;;;;;;5133867;27;20249;-64
2023/11/09 03:43:15;;;;;;;0.47;0.40;;;15.50;69.00;;;;;;5132948;27;20206;-63
2023/11/09 03:45:40;;;;;;;0.43;0.40;;;15.50;69.00;;;;;;5133812;27;20180;-63
2023/11/09 03:48:06;;;;;;;0.40;0.40;;;15.50;69.00;;;;;;5133721;27;20216;-63
2023/11/09 03:50:32;;;;;;;0.60;0.60;;;15.50;69.00;;;;;;5133385;27;20182;-63
2023/11/09 03:52:57;;;;;;;0.50;0.50;;;15.40;69.00;;;;;;5133905;28;20691;-63
2023/11/09 03:55:23;;;;;;;1.02;0.50;;;15.50;69.10;;;;;;5133081;28;20176;-63
2023/11/09 03:57:48;;;;;;;1.50;0.47;;;15.40;69.00;;;;;;5134213;27;20214;-64
2023/11/09 04:00:18;;;;;;;0.70;0.60;;;15.40;69.00;;;;;;5137750;27;20217;-64
2023/11/09 04:02:44;;;;;;;0.57;0.57;;;15.50;69.10;;;;;;5137301;27;20761;-63
2023/11/09 04:05:10;;;;;;;0.47;0.47;;;15.40;69.00;;;;;;5137605;27;20307;-63
2023/11/09 04:07:40;;;;;;;0.68;0.68;;;15.40;69.20;;;;;;5138117;27;20259;-63
2023/11/09 04:10:06;;;;;;;0.45;0.45;;;15.50;69.10;;;;;;5136942;27;20220;-63
2023/11/09 04:12:32;;;;;;;0.60;0.60;;;15.40;69.00;;;;;;5137822;27;20164;-62
2023/11/09 04:14:59;;;;;;;0.70;0.70;;;15.40;69.00;;;;;;5137501;27;20524;-63
2023/11/09 04:17:24;;;;;;;0.40;0.40;;;15.40;69.10;;;;;;5137247;27;20172;-63
2023/11/09 04:19:50;;;;;;;0.68;0.65;;;15.50;69.20;;;;;;5137710;27;20516;-63
2023/11/09 04:22:16;;;;;;;0.50;0.50;;;15.40;69.20;;;;;;5137554;27;20169;-63
2023/11/09 04:24:41;;;;;;;0.50;0.50;;;15.40;69.10;;;;;;5118703;27;20211;-63
2023/11/09 04:27:08;;;;;;;0.80;0.70;;;15.40;69.20;;;;;;5136553;27;20186;-63
2023/11/09 04:29:34;;;;;;;0.63;0.60;;;15.40;69.20;;;;;;5137498;27;20561;-63
2023/11/09 04:32:00;;;;;;;0.47;0.47;;;15.40;69.20;;;;;;5136785;27;20649;-63
2023/11/09 04:34:26;;;;;;;0.68;0.52;;;15.40;69.20;;;;;;5137562;27;20241;-63
2023/11/09 04:36:52;;;;;;;1.20;0.43;;;15.40;69.20;;;;;;5137491;27;20627;-63
2023/11/09 04:39:31;;;;;;;0.70;0.70;;;15.40;69.30;;;;;;5136379;27;20184;-64
2023/11/09 04:42:00;;;;;;;0.57;0.50;;;15.40;69.30;;;;;;5137290;27;20225;-63
2023/11/09 04:44:29;;;;;;;0.40;0.40;;;15.40;69.30;;;;;;5137374;27;20208;-62
2023/11/09 04:46:57;;;;;;;0.40;0.40;;;15.40;69.30;;;;;;5136406;27;20634;-63
2023/11/09 04:49:23;;;;;;;0.98;0.70;;;15.40;69.40;;;;;;5137048;27;20304;-63
2023/11/09 04:51:51;;;;;;;0.63;0.60;;;15.40;69.30;;;;;;5136494;27;20173;-62
2023/11/09 04:54:18;;;;;;;0.55;0.55;;;15.40;69.30;;;;;;5136760;27;20204;-63
2023/11/09 05:07:32;;;;;;;0.82;0.60;;;15.40;69.40;;;;;;5136259;27;20217;-63
2023/11/09 05:09:58;;;;;;;0.50;0.50;;;15.40;69.40;;;;;;5135666;27;20181;-63
2023/11/09 05:12:23;;;;;;;0.47;0.47;;;15.40;69.50;;;;;;5136717;27;20253;-63
2023/11/09 05:14:49;;;;;;;0.60;0.60;;;15.40;69.50;;;;;;5136095;27;20180;-62
2023/11/09 05:17:15;;;;;;;0.43;0.40;;;15.40;69.50;;;;;;5136188;27;20619;-63
2023/11/09 05:19:43;;;;;;;0.32;0.32;;;15.40;69.50;;;;;;5136718;27;20253;-63
2023/11/09 05:22:09;;;;;;;0.75;0.60;;;15.40;69.50;;;;;;5135947;27;20623;-63
2023/11/09 05:24:39;;;;;;;0.60;0.60;;;15.40;70.30;;;;;;5136642;27;20218;-62
2023/11/09 05:27:06;;;;;;;0.60;0.60;;;15.30;69.50;;;;;;5135609;27;20180;-63
2023/11/09 05:29:33;;;;;;;1.55;0.60;;;15.40;69.60;;;;;;5136599;27;20237;-63
2023/11/09 05:31:59;;;;;;;0.40;0.40;;;15.30;69.60;;;;;;5135912;27;20171;-63
2023/11/09 05:34:25;;;;;;;0.73;0.50;;;15.30;69.50;;;;;;5135747;27;20191;-64
2023/11/09 05:36:51;;;;;;;0.85;0.50;;;15.30;69.50;;;;;;5136396;27;20196;-65
2023/11/09 05:39:18;;;;;;;0.63;0.63;;;15.30;69.50;;;;;;5135800;27;20259;-63
2023/11/09 05:41:44;;;;;;;0.30;0.30;;;15.30;69.60;;;;;;5135450;27;20181;-64
2023/11/09 05:44:09;;;;;;;0.63;0.63;;;15.30;69.60;;;;;;5135751;27;20192;-63
2023/11/09 05:46:36;;;;;;;1.35;0.65;;;15.30;69.60;;;;;;5136213;27;20176;-63
2023/11/09 05:49:05;;;;;;;0.50;0.50;;;15.30;69.60;;;;;;5134961;27;20228;-63
2023/11/09 05:51:35;;;;;;;0.45;0.40;;;15.40;69.70;;;;;;5136221;27;20164;-63
2023/11/09 05:54:00;;;;;;;0.40;0.40;;;15.40;69.70;;;;;;5117385;27;20253;-63
2023/11/09 05:56:28;;;;;;;0.60;0.60;;;15.30;69.70;;;;;;5135137;27;20211;-64
2023/11/09 05:58:54;;;;;;;0.60;0.60;;;15.30;69.80;;;;;;5135868;27;20168;-63
2023/11/09 06:01:19;;;;;;;0.60;0.60;;;15.30;69.70;;;;;;5135748;27;20193;-63
2023/11/09 06:03:45;;;;;;;0.73;0.60;;;15.30;69.70;;;;;;5135171;27;20208;-63
2023/11/09 06:06:10;;;;;;;0.40;0.40;;;15.30;69.70;;;;;;5135640;27;20168;-64
2023/11/09 06:08:36;;;;;;;0.52;0.52;;;15.30;69.70;;;;;;5135451;27;20634;-63
2023/11/09 06:11:05;;;;;;;0.50;0.50;;;15.30;69.80;;;;;;5134730;27;20173;-64
2023/11/09 06:13:31;;;;;;;0.52;0.52;;;15.30;69.80;;;;;;5135485;27;20173;-64
2023/11/09 06:15:57;;;;;;;0.68;0.63;;;15.30;69.80;;;;;;5135867;27;20213;-63
2023/11/09 06:18:24;;;;;;;1.02;0.45;;;15.30;69.80;;;;;;5134662;27;20650;-63
2023/11/09 06:20:50;;;;;;;1.13;0.52;;;15.30;69.80;;;;;;5135494;27;20196;-63
2023/11/09 06:23:15;;;;;;;0.60;0.60;;;15.30;69.80;;;;;;5134330;27;20599;-64
2023/11/09 06:25:41;;;;;;;0.57;0.57;;;15.30;69.80;;;;;;5135445;27;20183;-63
2023/11/09 06:28:07;;;;;;;0.60;0.60;;;15.30;69.80;;;;;;5134844;27;20175;-64
2023/11/09 06:30:33;;;;;;;0.50;0.50;;;15.30;69.90;;;;;;5134788;27;20654;-64
2023/11/09 06:32:59;;;;;;;0.50;0.50;;;15.30;69.90;;;;;;5135091;27;20179;-63
2023/11/09 06:35:24;;;;;;;0.82;0.82;;;15.30;69.90;;;;;;5135360;27;20169;-63
2023/11/09 06:37:50;;;;;;;0.40;0.40;;;15.30;70.00;;;;;;5134525;27;20175;-63
2023/11/09 06:40:16;;;;;;;0.52;0.52;;;15.30;69.90;;;;;;5134777;27;20171;-63
2023/11/09 06:42:47;;;;;;;0.85;0.68;;;15.30;69.80;;;;;;5134925;27;20168;-62
2023/11/09 06:45:12;;;;;;;0.65;0.57;;;15.30;69.70;;;;;;5134109;27;20215;-63
2023/11/09 06:47:40;;;;;;;0.63;0.63;;;15.40;69.70;;;;;;5134772;27;20219;-62
2023/11/09 06:50:12;;;;;;;0.40;0.40;;;15.40;69.70;;;;;;5134500;27;20188;-63
2023/11/09 06:52:43;;;;;;;0.88;0.88;;;15.40;69.70;;;;;;5134106;27;20251;-62
2023/11/09 06:55:10;;;;;;;0.93;0.68;;;15.40;69.70;;;;;;5134482;27;20248;-63
2023/11/09 06:57:36;;;;;;;0.40;0.40;;;15.30;69.70;;;;;;5135026;27;20237;-63
2023/11/09 07:00:05;;;;;;;0.98;0.60;;;15.30;69.60;;;;;;5133600;27;20229;-64
2023/11/09 07:02:31;;;;;;;0.70;0.70;;;15.40;69.70;;;;;;5134743;27;20263;-63
2023/11/09 07:04:57;;;;;;;0.65;0.65;;;15.40;69.80;;;;;;5134544;27;20295;-62
2023/11/09 07:07:22;;;;;;;0.70;0.70;;;15.40;69.70;;;;;;5133712;27;20527;-63
2023/11/09 07:09:48;;;;;;;0.60;0.60;;;15.40;69.70;;;;;;5134550;27;20178;-63
2023/11/09 07:12:13;;;;;;;0.60;0.60;;;15.50;69.90;;;;;;5134239;27;20168;-63
2023/11/09 07:14:40;;;;;;;0.70;0.60;;;15.50;69.80;;;;;;5133627;27;20164;-62
2023/11/09 07:17:06;;;;;;;0.75;0.70;;;15.60;69.60;;;;;;5134215;27;20176;-61
2023/11/09 07:19:33;;;;;;;0.50;0.50;;;15.80;69.70;;;;;;5133452;27;20183;-62
2023/11/09 07:22:00;;;;;;;0.60;0.50;;;15.90;69.30;;;;;;5134087;27;20218;-63
2023/11/09 07:24:26;;;;;;;0.50;0.50;;;16.10;69.00;;;;;;5134048;27;20217;-62
2023/11/09 07:26:53;;;;;;;0.40;0.40;;;16.30;68.70;;;;;;5133611;27;20190;-62
2023/11/09 07:29:19;;;;;;;0.80;0.75;;;16.50;68.30;;;;;;5134032;27;20180;-62
2023/11/09 07:31:45;;;;;;;0.60;0.60;;;16.70;67.80;;;;;;5134217;27;20177;-62
2023/11/09 07:34:10;;;;;;;1.20;0.60;;;16.80;67.20;;;;;;5132751;27;20172;-63
2023/11/09 07:36:36;;;;;;;0.50;0.50;;;17.10;66.50;;;;;;5133906;27;20169;-63
2023/11/09 07:39:03;;;;;;;0.88;0.50;;;17.30;66.60;;;;;;5133630;27;20193;-63
2023/11/09 07:41:29;;;;;;;1.10;0.60;;;17.50;65.20;;;;;;5133485;27;20176;-63
2023/11/09 07:43:55;;;;;;;0.68;0.60;;;17.60;65.50;;;;;;5133722;27;20590;-62
2023/11/09 07:46:20;;;;;;;0.50;0.30;;;17.70;64.40;;;;;;5133422;27;20222;-61
2023/11/09 07:48:46;;;;;;;2.03;0.70;;;17.70;64.20;;;;;;5133025;27;20334;-63
2023/11/09 07:51:13;;;;;;;0.40;0.40;;;17.80;64.20;;;;;;5133533;27;20259;-63
2023/11/09 07:53:39;;;;;;;0.68;0.60;;;17.70;64.20;;;;;;5133866;27;20184;-65
2023/11/09 07:56:05;;;;;;;1.10;0.50;;;17.70;64.40;;;;;;5132696;27;20179;-65
2023/11/09 07:58:30;;;;;;;0.60;0.60;;;17.60;64.50;;;;;;5133858;28;20575;-65
2023/11/09 08:00:57;;;;;;;0.73;0.70;;;17.60;64.70;;;;;;5133824;28;20264;-65
2023/11/09 08:03:24;;;;;;;0.40;0.40;;;17.60;64.70;;;;;;5133177;28;20189;-65
2023/11/09 08:05:49;;;;;;;1.15;0.50;;;17.60;64.70;;;;;;5133850;28;20179;-65
2023/11/09 08:08:16;;;;;;;0.80;0.70;;;17.60;64.70;;;;;;5133139;28;20195;-65
2023/11/09 08:10:42;;;;;;;1.10;0.75;;;17.60;64.80;;;;;;5132257;28;20649;-64
2023/11/09 08:13:11;;;;;;;3.42;1.00;;;17.60;64.90;;;;;;5133523;28;20181;-64
2023/11/09 08:15:36;;;;;;;3.30;1.05;;;17.70;65.00;;;;;;5132519;28;20639;-63
2023/11/09 08:18:02;;;;;;;2.08;0.80;;;17.70;65.00;;;;;;5132995;28;20183;-62
2023/11/09 08:20:29;;;;;;;2.75;1.15;;;17.80;65.20;;;;;;5133109;28;20222;-61
2023/11/09 08:22:56;;;;;;;1.90;0.80;;;17.80;65.10;;;;;;5132815;28;20187;-66
2023/11/09 08:25:22;;;;;;;2.70;0.70;;;17.70;65.20;;;;;;5133103;28;20718;-65
2023/11/09 08:27:48;;;;;;;3.10;0.90;;;17.70;65.20;;;;;;5133629;28;20173;-65
2023/11/09 08:30:15;;;;;;;2.30;0.88;;;17.70;65.60;;;;;;5132574;28;20612;-65
2023/11/09 08:32:45;;;;;;;1.33;0.85;;;17.60;66.00;;;;;;5133469;28;20172;-64
2023/11/09 08:35:11;;;;;;;2.97;1.20;;;17.50;65.90;;;;;;5133161;28;20169;-65
2023/11/09 08:37:40;;;;;;;2.35;0.90;;;17.50;66.50;;;;;;5132896;28;20225;-65
2023/11/09 08:40:09;;;;;;;5.30;0.80;;;17.40;66.60;;;;;;5132969;28;20191;-65
2023/11/09 08:42:36;;;;;;;2.35;1.05;;;17.40;66.60;;;;;;5133375;28;20258;-64
2023/11/09 08:45:04;;;;;;;1.95;1.10;;;17.40;66.50;;;;;;5133153;27;20212;-65
2023/11/09 08:47:29;;;;;;;1.80;1.00;;;17.30;66.60;;;;;;5137143;27;20184;-64
2023/11/09 08:49:55;;;;;;;2.25;1.00;;;17.30;66.80;;;;;;5136977;27;20565;-63
2023/11/09 08:52:23;;;;;;;2.75;0.98;;;17.20;67.00;;;;;;5136250;27;20176;-65
2023/11/09 08:54:51;;;;;;;2.67;1.10;;;17.20;67.30;;;;;;5137188;27;20259;-64
2023/11/09 08:57:18;;;;;;;2.55;1.15;;;17.10;67.30;;;;;;5136927;27;20321;-65
2023/11/09 08:59:43;;;;;;;2.13;1.08;;;17.10;67.50;;;;;;5136258;27;20538;-64
2023/11/09 09:02:09;;;;;;;1.80;0.95;;;17.10;67.70;;;;;;5136627;27;20169;-64
2023/11/09 09:04:35;;;;;;;3.13;1.10;;;17.10;67.50;;;;;;5137135;27;20485;-67
2023/11/09 09:07:01;;;;;;;1.92;1.13;;;17.20;67.40;;;;;;5135834;27;20237;-68
2023/11/09 09:09:26;;;;;;;2.75;0.95;;;17.20;68.20;;;;;;5136966;27;20205;-68
2023/11/09 09:11:52;;;;;;;2.63;1.15;;;17.20;67.30;;;;;;5136278;27;20203;-68
2023/11/09 09:14:18;;;;;;;3.35;1.30;;;17.10;67.30;;;;;;5136388;27;20267;-68
2023/11/09 09:16:44;;;;;;;1.15;1.13;;;17.10;67.30;;;;;;5136627;27;20173;-67
2023/11/09 09:19:09;;;;;;;1.40;0.95;;;17.00;67.40;;;;;;5135542;27;20177;-67
2023/11/09 09:21:36;;;;;;;2.97;1.00;;;16.90;67.60;;;;;;5136794;27;20256;-67
2023/11/09 09:24:02;;;;;;;2.00;0.85;;;16.90;67.80;;;;;;5136420;27;20602;-67
2023/11/09 09:26:30;;;;;;;2.50;1.20;;;16.90;68.10;;;;;;5135913;27;20251;-67
2023/11/09 09:28:56;;;;;;;2.05;1.23;;;16.90;68.00;;;;;;5136567;27;20188;-67
2023/11/09 09:31:23;;;;;;;1.88;0.90;;;17.00;67.80;;;;;;5136144;27;20251;-67
2023/11/09 09:34:02;;;;;;;2.85;1.52;;;17.00;67.70;;;;;;5135953;27;20229;-68
2023/11/09 09:36:28;;;;;;;1.33;0.80;;;17.10;67.70;;;;;;5136519;27;20217;-67
2023/11/09 09:38:53;;;;;;;1.48;1.23;;;17.00;67.50;;;;;;5136398;27;20176;-67
2023/11/09 09:41:19;;;;;;;2.33;1.08;;;17.00;67.50;;;;;;5135401;27;20184;-67
2023/11/09 09:43:45;;;;;;;2.75;1.20;;;17.00;67.60;;;;;;5136064;27;20223;-66
2023/11/09 09:46:12;;;;;;;3.30;1.13;;;16.90;67.80;;;;;;5100848;27;20172;-66
2023/11/09 09:48:38;;;;;;;1.83;1.08;;;16.90;67.90;;;;;;5100525;27;20282;-66
2023/11/09 09:51:06;;;;;;;1.20;1.10;;;16.80;68.00;;;;;;5135766;27;20696;-67
2023/11/09 09:53:31;;;;;;;1.50;0.98;;;16.80;68.30;;;;;;5118047;27;20548;-67
2023/11/09 09:55:57;;;;;;;1.85;1.05;;;16.80;68.30;;;;;;5099743;27;20268;-68
2023/11/09 09:58:22;;;;;;;3.00;1.30;;;16.80;68.40;;;;;;5135758;27;20515;-68
2023/11/09 10:00:54;;;;;;;1.75;1.20;;;16.80;68.20;;;;;;5117560;27;20172;-67
2023/11/09 10:03:19;;;;;;;2.88;1.50;;;16.80;68.20;;;;;;5117204;27;20183;-67
2023/11/09 10:05:46;;;;;;;2.88;1.58;;;16.70;68.30;;;;;;5117621;27;20216;-67
2023/11/09 10:08:15;;;;;;;2.05;1.40;;;16.70;68.50;;;;;;5134798;27;20266;-68
2023/11/09 10:10:47;;;;;;;3.13;1.55;;;16.70;68.60;;;;;;5135813;27;20176;-68
2023/11/09 10:13:13;;;;;;;3.42;1.58;;;16.70;68.60;;;;;;5135259;27;20619;-67
2023/11/09 10:15:39;;;;;;;2.97;1.60;;;16.70;68.70;;;;;;5135023;27;20165;-67
2023/11/09 10:18:05;;;;;;;2.35;1.40;;;16.70;68.70;;;;;;5134878;27;20192;-67
2023/11/09 10:20:32;;;;;;;3.67;1.52;;;16.70;68.80;;;;;;5135624;27;20180;-67
2023/11/09 10:23:02;;;;;;;2.63;1.50;;;16.70;68.80;;;;;;5134705;27;20172;-67
2023/11/09 10:25:28;;;;;;;2.05;1.33;;;16.70;68.80;;;;;;5135582;27;20212;-67
2023/11/09 10:27:56;;;;;;;2.17;1.52;;;16.70;69.00;;;;;;5135491;27;20188;-68
2023/11/09 10:30:21;;;;;;;2.17;1.52;;;16.70;68.80;;;;;;5134266;27;20675;-67
2023/11/09 10:32:47;;;;;;;3.42;1.77;;;16.70;68.80;;;;;;5135153;27;20233;-67
2023/11/09 10:35:13;;;;;;;1.80;1.33;;;16.70;68.80;;;;;;5135010;27;20176;-67
2023/11/09 10:37:40;;;;;;;1.52;1.17;;;16.70;68.90;;;;;;5134433;27;20179;-67
2023/11/09 10:40:13;;;;;;;4.55;2.03;;;16.70;69.00;;;;;;5134762;27;20183;-67
2023/11/09 10:42:40;;;;;;;2.50;1.30;;;16.70;68.80;;;;;;5135232;27;20179;-66
2023/11/09 10:45:10;;;;;;;5.30;1.77;;;16.70;69.00;;;;;;5134029;27;20244;-66
2023/11/09 10:47:39;;;;;;;2.22;1.30;;;16.70;69.30;;;;;;5100955;27;20173;-66
2023/11/09 10:50:13;;;;;;;2.63;1.33;;;16.70;69.30;;;;;;5116772;27;20651;-67
2023/11/09 10:52:42;;;;;;;3.13;1.67;;;16.70;69.30;;;;;;5117156;27;20182;-67
2023/11/09 10:55:09;;;;;;;2.67;1.88;;;16.60;69.00;;;;;;5116571;27;20548;-68
2023/11/09 10:57:37;;;;;;;3.75;1.70;;;16.60;69.10;;;;;;5116207;27;20237;-68
2023/11/09 11:00:03;;;;;;;2.70;1.70;;;16.70;69.20;;;;;;5134648;27;20210;-68
2023/11/09 11:02:29;;;;;;;2.10;1.70;;;16.70;69.00;;;;;;5116454;27;20174;-68
2023/11/09 11:04:59;;;;;;;2.72;1.80;;;16.70;69.10;;;;;;5115696;27;20314;-68
2023/11/09 11:07:29;;;;;;;5.25;2.30;;;16.70;69.90;;;;;;5116264;28;20180;-68
2023/11/09 11:09:56;;;;;;;2.97;2.00;;;16.70;69.00;;;;;;5134429;27;20528;-68
2023/11/09 11:12:21;;;;;;;2.28;1.85;;;16.70;68.80;;;;;;5133860;27;20173;-67
2023/11/09 11:14:49;;;;;;;2.75;1.73;;;16.80;69.10;;;;;;5134305;27;20220;-67
2023/11/09 11:17:38;;;;;;;2.35;1.75;;;16.80;68.80;;;;;;5134120;27;20176;-67
2023/11/09 11:20:32;;;;;;;2.95;1.92;;;16.90;68.60;;;;;;5133159;27;20658;-67
2023/11/09 11:23:25;;;;;;;2.22;1.38;;;16.80;68.50;;;;;;5134244;27;20177;-68
2023/11/09 11:26:05;;;;;;;4.28;2.03;;;16.80;68.60;;;;;;5133603;27;20196;-67
2023/11/09 11:28:31;;;;;;;1.98;1.73;;;16.90;68.40;;;;;;5116453;27;20618;-67
2023/11/09 11:31:07;;;;;;;3.00;1.88;;;16.80;68.40;;;;;;5098977;27;20267;-67
2023/11/09 11:33:35;;;;;;;2.53;1.50;;;16.90;68.70;;;;;;5133436;27;20568;-67
2023/11/09 11:36:01;;;;;;;2.80;1.90;;;16.90;68.50;;;;;;5133891;27;20176;-68
2023/11/09 11:38:30;;;;;;;2.63;1.80;;;16.80;68.50;;;;;;5133967;27;20176;-67
2023/11/09 11:41:05;;;;;;;3.15;1.70;;;16.90;68.40;;;;;;5132834;27;20232;-67
2023/11/09 11:43:37;;;;;;;3.67;2.38;;;16.90;68.40;;;;;;5133825;27;20650;-67
2023/11/09 11:46:08;;;;;;;2.90;1.63;;;16.80;68.30;;;;;;5133759;27;20202;-66
2023/11/09 11:48:34;;;;;;;2.60;1.67;;;16.80;68.30;;;;;;5115387;27;20633;-67
2023/11/09 11:50:59;;;;;;;4.07;1.70;;;16.80;68.60;;;;;;5133152;27;20218;-63
2023/11/09 11:53:31;;;;;;;4.05;2.10;;;16.80;68.70;;;;;;5133266;27;20572;-64
2023/11/09 11:56:02;;;;;;;3.75;1.70;;;16.80;68.60;;;;;;5132787;27;20202;-65
2023/11/09 11:58:46;;;;;;;2.65;1.80;;;16.70;68.70;;;;;;5115210;28;20197;-64
2023/11/09 12:01:18;;;;;;;5.85;1.83;;;16.80;68.40;;;;;;5115529;28;20178;-64
2023/11/09 12:03:47;;;;;;;3.53;1.40;;;16.80;68.20;;;;;;5133494;28;20176;-66
2023/11/09 12:06:13;;;;;;;5.72;2.13;;;16.80;68.20;;;;;;5098926;28;20168;-66
2023/11/09 12:08:40;;;;;;;3.45;1.70;;;16.90;68.20;;;;;;5097919;28;20169;-67
2023/11/09 12:11:07;;;;;;;2.40;1.52;;;16.90;68.00;;;;;;5114778;28;20187;-68
2023/11/09 12:13:34;;;;;;;4.93;1.90;;;16.90;67.80;;;;;;5115241;28;20179;-66
2023/11/09 12:16:00;;;;;;;4.40;1.70;;;16.90;67.90;;;;;;5132367;28;20249;-66
2023/11/09 12:18:26;;;;;;;4.10;1.70;;;16.90;67.90;;;;;;5133209;28;20522;-65
2023/11/09 12:20:54;;;;;;;2.30;1.67;;;16.90;67.90;;;;;;5137855;27;20179;-65
2023/11/09 12:23:23;;;;;;;3.30;1.67;;;16.80;67.90;;;;;;5136810;27;20168;-65
2023/11/09 12:25:52;;;;;;;2.25;1.55;;;16.80;68.10;;;;;;5137538;27;20219;-65
2023/11/09 12:28:18;;;;;;;2.53;1.55;;;16.80;68.10;;;;;;5137295;27;20180;-66
2023/11/09 12:30:46;;;;;;;3.83;1.67;;;16.80;68.50;;;;;;5136671;27;20176;-65
2023/11/09 12:33:12;;;;;;;4.95;1.70;;;16.80;68.40;;;;;;5137470;27;20533;-65
2023/11/09 12:35:49;;;;;;;4.47;1.48;;;16.80;68.50;;;;;;5137643;27;20184;-66
2023/11/09 12:38:15;;;;;;;7.78;1.95;;;16.80;68.50;;;;;;5136949;27;20169;-66
2023/11/09 12:40:41;;;;;;;5.80;2.40;;;16.70;69.50;;;;;;5102337;27;20200;-66
2023/11/09 12:43:07;;;;;;;5.63;1.65;;;16.70;68.60;;;;;;5136171;27;20207;-66
2023/11/09 12:45:38;;;;;;;6.65;1.83;;;16.70;68.60;;;;;;5119073;27;20215;-66
2023/11/09 12:48:08;;;;;;;6.40;1.60;;;16.70;68.70;;;;;;5136936;27;20220;-65
2023/11/09 12:50:36;;;;;;;5.38;1.80;;;16.70;68.80;;;;;;5136486;27;20180;-66
2023/11/09 12:53:02;;;;;;;5.18;1.73;;;16.70;68.90;;;;;;5136753;27;20181;-65
2023/11/09 12:55:29;;;;;;;2.33;1.40;;;16.70;68.80;;;;;;5137123;27;20196;-66
2023/11/09 12:57:54;;;;;;;3.03;1.33;;;16.70;68.80;;;;;;5118078;27;20179;-66